sensor_id;sensor_type;location;lat;lon;timestamp;temperature;humidity
51661;DHT22;37741;49.748;8.490;2023-04-24T00:00:17;14.90;73.00
51661;DHT22;37741;49.748;8.490;2023-04-24T00:02:43;14.80;72.90
51661;DHT22;37741;49.748;8.490;2023-04-24T00:05:13;14.80;73.00
51661;DHT22;37741;49.748;8.490;2023-04-24T00:07:40;14.80;73.10
51661;DHT22;37741;49.748;8.490;2023-04-24T00:10:06;14.80;73.10
51661;DHT22;37741;49.748;8.490;2023-04-24T00:12:32;14.70;73.10
51661;DHT22;37741;49.748;8.490;2023-04-24T00:14:58;14.70;73.20
51661;DHT22;37741;49.748;8.490;2023-04-24T00:17:24;14.70;73.20
51661;DHT22;37741;49.748;8.490;2023-04-24T00:19:49;14.70;73.20
51661;DHT22;37741;49.748;8.490;2023-04-24T00:22:24;14.70;73.50
51661;DHT22;37741;49.748;8.490;2023-04-24T00:24:50;14.70;73.40
51661;DHT22;37741;49.748;8.490;2023-04-24T00:27:15;14.60;73.60
51661;DHT22;37741;49.748;8.490;2023-04-24T00:29:41;14.60;73.50
51661;DHT22;37741;49.748;8.490;2023-04-24T00:32:07;14.60;73.40
51661;DHT22;37741;49.748;8.490;2023-04-24T00:34:32;14.60;73.70
51661;DHT22;37741;49.748;8.490;2023-04-24T00:36:58;14.60;73.80
51661;DHT22;37741;49.748;8.490;2023-04-24T00:39:24;14.50;73.70
51661;DHT22;37741;49.748;8.490;2023-04-24T00:41:49;14.50;73.80
51661;DHT22;37741;49.748;8.490;2023-04-24T00:44:16;14.50;73.70
51661;DHT22;37741;49.748;8.490;2023-04-24T00:46:42;14.50;73.90
51661;DHT22;37741;49.748;8.490;2023-04-24T00:49:08;14.50;74.00
51661;DHT22;37741;49.748;8.490;2023-04-24T00:51:33;14.50;74.10
51661;DHT22;37741;49.748;8.490;2023-04-24T00:54:00;14.50;74.20
51661;DHT22;37741;49.748;8.490;2023-04-24T00:56:26;14.50;74.10
51661;DHT22;37741;49.748;8.490;2023-04-24T00:58:52;14.40;74.10
51661;DHT22;37741;49.748;8.490;2023-04-24T01:01:21;14.40;74.10
51661;DHT22;37741;49.748;8.490;2023-04-24T01:03:49;14.40;74.30
51661;DHT22;37741;49.748;8.490;2023-04-24T01:06:16;14.40;74.40
51661;DHT22;37741;49.748;8.490;2023-04-24T01:08:44;14.40;74.40
51661;DHT22;37741;49.748;8.490;2023-04-24T01:11:10;14.40;74.30
51661;DHT22;37741;49.748;8.490;2023-04-24T01:13:36;14.30;74.30
51661;DHT22;37741;49.748;8.490;2023-04-24T01:16:02;14.30;74.40
51661;DHT22;37741;49.748;8.490;2023-04-24T01:18:28;14.30;74.30
51661;DHT22;37741;49.748;8.490;2023-04-24T01:20:57;14.30;74.40
51661;DHT22;37741;49.748;8.490;2023-04-24T01:23:23;14.30;74.30
51661;DHT22;37741;49.748;8.490;2023-04-24T01:25:49;14.30;74.50
51661;DHT22;37741;49.748;8.490;2023-04-24T01:28:15;14.20;74.40
51661;DHT22;37741;49.748;8.490;2023-04-24T01:30:42;14.20;74.50
51661;DHT22;37741;49.748;8.490;2023-04-24T01:33:07;14.20;74.50
51661;DHT22;37741;49.748;8.490;2023-04-24T01:35:33;14.20;74.50
51661;DHT22;37741;49.748;8.490;2023-04-24T01:37:59;14.20;74.50
51661;DHT22;37741;49.748;8.490;2023-04-24T01:40:25;14.20;74.70
51661;DHT22;37741;49.748;8.490;2023-04-24T01:42:51;14.10;74.60
51661;DHT22;37741;49.748;8.490;2023-04-24T01:45:17;14.10;74.70
51661;DHT22;37741;49.748;8.490;2023-04-24T01:47:43;14.10;74.60
51661;DHT22;37741;49.748;8.490;2023-04-24T01:50:09;14.10;74.70
51661;DHT22;37741;49.748;8.490;2023-04-24T01:52:35;14.10;74.90
51661;DHT22;37741;49.748;8.490;2023-04-24T01:55:04;14.10;74.90
51661;DHT22;37741;49.748;8.490;2023-04-24T01:57:31;14.10;74.70
51661;DHT22;37741;49.748;8.490;2023-04-24T01:59:57;14.00;74.90
51661;DHT22;37741;49.748;8.490;2023-04-24T02:02:23;14.10;74.90
51661;DHT22;37741;49.748;8.490;2023-04-24T02:04:55;14.00;74.70
51661;DHT22;37741;49.748;8.490;2023-04-24T02:07:21;14.00;74.90
51661;DHT22;37741;49.748;8.490;2023-04-24T02:09:46;14.00;74.90
51661;DHT22;37741;49.748;8.490;2023-04-24T02:12:12;14.00;74.80
51661;DHT22;37741;49.748;8.490;2023-04-24T02:14:37;14.00;74.90
51661;DHT22;37741;49.748;8.490;2023-04-24T02:17:03;14.00;75.20
51661;DHT22;37741;49.748;8.490;2023-04-24T02:19:30;14.00;75.20
51661;DHT22;37741;49.748;8.490;2023-04-24T02:21:55;13.90;75.20
51661;DHT22;37741;49.748;8.490;2023-04-24T02:24:21;13.90;75.20
51661;DHT22;37741;49.748;8.490;2023-04-24T02:26:47;13.90;75.20
51661;DHT22;37741;49.748;8.490;2023-04-24T02:29:13;13.90;76.00
51661;DHT22;37741;49.748;8.490;2023-04-24T02:31:40;13.90;75.50
51661;DHT22;37741;49.748;8.490;2023-04-24T02:34:05;13.90;76.20
51661;DHT22;37741;49.748;8.490;2023-04-24T02:36:31;13.90;75.80
51661;DHT22;37741;49.748;8.490;2023-04-24T02:38:57;13.90;75.80
51661;DHT22;37741;49.748;8.490;2023-04-24T02:41:22;13.90;75.90
51661;DHT22;37741;49.748;8.490;2023-04-24T02:43:48;13.90;76.00
51661;DHT22;37741;49.748;8.490;2023-04-24T02:46:13;13.90;76.10
51661;DHT22;37741;49.748;8.490;2023-04-24T02:48:39;13.90;76.10
51661;DHT22;37741;49.748;8.490;2023-04-24T02:51:05;13.80;76.00
51661;DHT22;37741;49.748;8.490;2023-04-24T02:53:32;13.80;76.00
51661;DHT22;37741;49.748;8.490;2023-04-24T02:55:57;13.80;76.20
51661;DHT22;37741;49.748;8.490;2023-04-24T02:58:23;13.80;76.20
51661;DHT22;37741;49.748;8.490;2023-04-24T03:00:49;13.80;76.20
51661;DHT22;37741;49.748;8.490;2023-04-24T03:03:18;13.80;76.20
51661;DHT22;37741;49.748;8.490;2023-04-24T03:05:43;13.80;76.20
51661;DHT22;37741;49.748;8.490;2023-04-24T03:08:09;13.80;76.40
51661;DHT22;37741;49.748;8.490;2023-04-24T03:10:35;13.70;76.30
51661;DHT22;37741;49.748;8.490;2023-04-24T03:13:01;13.70;76.30
51661;DHT22;37741;49.748;8.490;2023-04-24T03:15:27;13.70;76.40
51661;DHT22;37741;49.748;8.490;2023-04-24T03:17:52;13.70;76.50
51661;DHT22;37741;49.748;8.490;2023-04-24T03:20:18;13.70;76.50
51661;DHT22;37741;49.748;8.490;2023-04-24T03:22:44;13.60;76.70
51661;DHT22;37741;49.748;8.490;2023-04-24T03:25:09;13.60;76.70
51661;DHT22;37741;49.748;8.490;2023-04-24T03:27:35;13.60;76.70
51661;DHT22;37741;49.748;8.490;2023-04-24T03:30:01;13.60;76.80
51661;DHT22;37741;49.748;8.490;2023-04-24T03:32:27;13.60;76.70
51661;DHT22;37741;49.748;8.490;2023-04-24T03:34:52;13.60;76.70
51661;DHT22;37741;49.748;8.490;2023-04-24T03:37:18;13.60;76.70
51661;DHT22;37741;49.748;8.490;2023-04-24T03:39:44;13.50;76.90
51661;DHT22;37741;49.748;8.490;2023-04-24T03:42:10;13.50;77.00
51661;DHT22;37741;49.748;8.490;2023-04-24T03:44:36;13.50;77.00
51661;DHT22;37741;49.748;8.490;2023-04-24T03:47:02;13.50;77.10
51661;DHT22;37741;49.748;8.490;2023-04-24T03:49:27;13.50;77.20
51661;DHT22;37741;49.748;8.490;2023-04-24T03:51:53;13.50;77.00
51661;DHT22;37741;49.748;8.490;2023-04-24T03:54:22;13.50;77.20
51661;DHT22;37741;49.748;8.490;2023-04-24T03:56:47;13.50;77.20
51661;DHT22;37741;49.748;8.490;2023-04-24T03:59:13;13.50;77.20
51661;DHT22;37741;49.748;8.490;2023-04-24T04:01:39;13.50;77.30
51661;DHT22;37741;49.748;8.490;2023-04-24T04:04:07;13.40;77.10
51661;DHT22;37741;49.748;8.490;2023-04-24T04:06:33;13.40;77.10
51661;DHT22;37741;49.748;8.490;2023-04-24T04:09:00;13.40;77.20
51661;DHT22;37741;49.748;8.490;2023-04-24T04:11:26;13.40;77.00
51661;DHT22;37741;49.748;8.490;2023-04-24T04:13:51;13.40;77.10
51661;DHT22;37741;49.748;8.490;2023-04-24T04:16:17;13.40;77.00
51661;DHT22;37741;49.748;8.490;2023-04-24T04:18:43;13.40;77.00
51661;DHT22;37741;49.748;8.490;2023-04-24T04:21:09;13.40;77.10
51661;DHT22;37741;49.748;8.490;2023-04-24T04:23:35;13.30;77.00
51661;DHT22;37741;49.748;8.490;2023-04-24T04:26:01;13.30;76.90
51661;DHT22;37741;49.748;8.490;2023-04-24T04:28:27;13.30;76.90
51661;DHT22;37741;49.748;8.490;2023-04-24T04:30:53;13.30;76.80
51661;DHT22;37741;49.748;8.490;2023-04-24T04:33:26;13.30;77.30
51661;DHT22;37741;49.748;8.490;2023-04-24T04:35:52;13.20;76.80
51661;DHT22;37741;49.748;8.490;2023-04-24T04:38:20;13.20;76.80
51661;DHT22;37741;49.748;8.490;2023-04-24T04:40:46;13.20;76.80
51661;DHT22;37741;49.748;8.490;2023-04-24T04:43:12;13.20;76.80
51661;DHT22;37741;49.748;8.490;2023-04-24T04:45:41;13.10;76.80
51661;DHT22;37741;49.748;8.490;2023-04-24T04:48:08;13.10;76.80
51661;DHT22;37741;49.748;8.490;2023-04-24T04:50:35;13.20;76.90
51661;DHT22;37741;49.748;8.490;2023-04-24T04:53:01;13.10;76.80
51661;DHT22;37741;49.748;8.490;2023-04-24T04:55:27;13.00;76.80
51661;DHT22;37741;49.748;8.490;2023-04-24T04:57:52;13.00;76.80
51661;DHT22;37741;49.748;8.490;2023-04-24T05:00:18;13.00;76.90
51661;DHT22;37741;49.748;8.490;2023-04-24T05:02:44;13.00;76.90
51661;DHT22;37741;49.748;8.490;2023-04-24T05:05:10;13.00;76.90
51661;DHT22;37741;49.748;8.490;2023-04-24T05:07:36;13.00;76.90
51661;DHT22;37741;49.748;8.490;2023-04-24T05:10:02;13.00;77.00
51661;DHT22;37741;49.748;8.490;2023-04-24T05:12:27;12.90;77.00
51661;DHT22;37741;49.748;8.490;2023-04-24T05:14:53;12.90;77.00
51661;DHT22;37741;49.748;8.490;2023-04-24T05:17:19;12.90;77.10
51661;DHT22;37741;49.748;8.490;2023-04-24T05:19:44;12.90;77.10
51661;DHT22;37741;49.748;8.490;2023-04-24T05:22:10;12.90;77.10
51661;DHT22;37741;49.748;8.490;2023-04-24T05:24:37;12.90;77.10
51661;DHT22;37741;49.748;8.490;2023-04-24T05:27:03;12.90;77.00
51661;DHT22;37741;49.748;8.490;2023-04-24T05:29:30;12.80;76.90
51661;DHT22;37741;49.748;8.490;2023-04-24T05:31:59;12.80;76.80
51661;DHT22;37741;49.748;8.490;2023-04-24T05:34:25;12.80;76.80
51661;DHT22;37741;49.748;8.490;2023-04-24T05:36:51;12.80;76.70
51661;DHT22;37741;49.748;8.490;2023-04-24T05:39:17;12.80;76.80
51661;DHT22;37741;49.748;8.490;2023-04-24T05:41:43;12.80;76.80
51661;DHT22;37741;49.748;8.490;2023-04-24T05:44:09;12.70;76.80
51661;DHT22;37741;49.748;8.490;2023-04-24T05:46:35;12.70;76.70
51661;DHT22;37741;49.748;8.490;2023-04-24T05:49:01;12.70;76.70
51661;DHT22;37741;49.748;8.490;2023-04-24T05:51:27;12.70;76.90
51661;DHT22;37741;49.748;8.490;2023-04-24T05:53:53;12.70;76.90
51661;DHT22;37741;49.748;8.490;2023-04-24T05:56:19;12.70;77.00
51661;DHT22;37741;49.748;8.490;2023-04-24T05:58:45;12.70;77.00
51661;DHT22;37741;49.748;8.490;2023-04-24T06:01:11;12.70;77.00
51661;DHT22;37741;49.748;8.490;2023-04-24T06:03:38;12.70;76.80
51661;DHT22;37741;49.748;8.490;2023-04-24T06:06:05;12.70;76.80
51661;DHT22;37741;49.748;8.490;2023-04-24T06:08:31;12.70;76.90
51661;DHT22;37741;49.748;8.490;2023-04-24T06:10:58;12.70;76.90
51661;DHT22;37741;49.748;8.490;2023-04-24T06:13:23;12.70;76.90
51661;DHT22;37741;49.748;8.490;2023-04-24T06:15:49;12.70;76.90
51661;DHT22;37741;49.748;8.490;2023-04-24T06:18:15;12.70;77.00
51661;DHT22;37741;49.748;8.490;2023-04-24T06:20:41;12.70;76.90
51661;DHT22;37741;49.748;8.490;2023-04-24T06:23:06;12.60;77.00
51661;DHT22;37741;49.748;8.490;2023-04-24T06:25:32;12.70;77.10
51661;DHT22;37741;49.748;8.490;2023-04-24T06:27:58;12.60;77.30
51661;DHT22;37741;49.748;8.490;2023-04-24T06:30:23;12.60;76.90
51661;DHT22;37741;49.748;8.490;2023-04-24T06:32:49;12.60;76.90
51661;DHT22;37741;49.748;8.490;2023-04-24T06:35:15;12.60;76.90
51661;DHT22;37741;49.748;8.490;2023-04-24T06:37:41;12.60;76.90
51661;DHT22;37741;49.748;8.490;2023-04-24T06:40:08;12.60;76.80
51661;DHT22;37741;49.748;8.490;2023-04-24T06:42:33;12.60;76.80
51661;DHT22;37741;49.748;8.490;2023-04-24T06:45:00;12.70;76.70
51661;DHT22;37741;49.748;8.490;2023-04-24T06:47:26;12.60;76.80
51661;DHT22;37741;49.748;8.490;2023-04-24T06:49:52;12.70;76.80
51661;DHT22;37741;49.748;8.490;2023-04-24T06:52:19;12.70;76.80
51661;DHT22;37741;49.748;8.490;2023-04-24T06:54:44;12.60;76.70
51661;DHT22;37741;49.748;8.490;2023-04-24T06:57:10;12.70;76.80
51661;DHT22;37741;49.748;8.490;2023-04-24T06:59:36;12.70;76.70
51661;DHT22;37741;49.748;8.490;2023-04-24T07:02:02;12.70;76.70
51661;DHT22;37741;49.748;8.490;2023-04-24T07:04:28;12.60;76.70
51661;DHT22;37741;49.748;8.490;2023-04-24T07:06:54;12.60;76.70
51661;DHT22;37741;49.748;8.490;2023-04-24T07:09:21;12.60;76.70
51661;DHT22;37741;49.748;8.490;2023-04-24T07:11:49;12.60;76.70
51661;DHT22;37741;49.748;8.490;2023-04-24T07:14:15;12.60;76.80
51661;DHT22;37741;49.748;8.490;2023-04-24T07:16:41;12.60;76.80
51661;DHT22;37741;49.748;8.490;2023-04-24T07:19:07;12.60;76.90
51661;DHT22;37741;49.748;8.490;2023-04-24T07:21:32;12.60;76.90
51661;DHT22;37741;49.748;8.490;2023-04-24T07:23:58;12.60;76.90
51661;DHT22;37741;49.748;8.490;2023-04-24T07:26:25;12.50;76.80
51661;DHT22;37741;49.748;8.490;2023-04-24T07:28:51;12.50;76.80
51661;DHT22;37741;49.748;8.490;2023-04-24T07:31:16;12.50;76.90
51661;DHT22;37741;49.748;8.490;2023-04-24T07:33:42;12.50;76.90
51661;DHT22;37741;49.748;8.490;2023-04-24T07:36:08;12.50;77.00
51661;DHT22;37741;49.748;8.490;2023-04-24T07:38:33;12.40;76.90
51661;DHT22;37741;49.748;8.490;2023-04-24T07:40:59;12.40;76.90
51661;DHT22;37741;49.748;8.490;2023-04-24T07:43:24;12.40;77.00
51661;DHT22;37741;49.748;8.490;2023-04-24T07:45:51;12.40;76.70
51661;DHT22;37741;49.748;8.490;2023-04-24T07:48:16;12.40;76.40
51661;DHT22;37741;49.748;8.490;2023-04-24T07:50:43;12.40;76.30
51661;DHT22;37741;49.748;8.490;2023-04-24T07:53:09;12.40;76.10
51661;DHT22;37741;49.748;8.490;2023-04-24T07:55:34;12.40;76.00
51661;DHT22;37741;49.748;8.490;2023-04-24T07:58:00;12.30;76.00
51661;DHT22;37741;49.748;8.490;2023-04-24T08:00:26;12.40;75.60
51661;DHT22;37741;49.748;8.490;2023-04-24T08:02:51;12.30;75.40
51661;DHT22;37741;49.748;8.490;2023-04-24T08:05:17;12.30;75.40
51661;DHT22;37741;49.748;8.490;2023-04-24T08:07:43;12.40;75.10
51661;DHT22;37741;49.748;8.490;2023-04-24T08:10:10;12.30;75.00
51661;DHT22;37741;49.748;8.490;2023-04-24T08:12:37;12.30;75.30
51661;DHT22;37741;49.748;8.490;2023-04-24T08:15:03;12.30;75.20
51661;DHT22;37741;49.748;8.490;2023-04-24T08:17:29;12.30;75.00
51661;DHT22;37741;49.748;8.490;2023-04-24T08:19:55;12.30;74.90
51661;DHT22;37741;49.748;8.490;2023-04-24T08:22:27;12.30;74.60
51661;DHT22;37741;49.748;8.490;2023-04-24T08:24:52;12.30;73.70
51661;DHT22;37741;49.748;8.490;2023-04-24T08:27:18;12.30;73.40
51661;DHT22;37741;49.748;8.490;2023-04-24T08:29:44;12.30;74.10
51661;DHT22;37741;49.748;8.490;2023-04-24T08:32:10;12.30;74.10
51661;DHT22;37741;49.748;8.490;2023-04-24T08:34:35;12.30;73.80
51661;DHT22;37741;49.748;8.490;2023-04-24T08:37:01;12.30;74.40
51661;DHT22;37741;49.748;8.490;2023-04-24T08:39:27;12.30;74.30
51661;DHT22;37741;49.748;8.490;2023-04-24T08:41:53;12.30;73.10
51661;DHT22;37741;49.748;8.490;2023-04-24T08:44:19;12.30;72.20
51661;DHT22;37741;49.748;8.490;2023-04-24T08:46:47;12.30;72.30
51661;DHT22;37741;49.748;8.490;2023-04-24T08:49:15;12.30;72.00
51661;DHT22;37741;49.748;8.490;2023-04-24T08:51:44;12.30;72.20
51661;DHT22;37741;49.748;8.490;2023-04-24T08:54:11;12.30;72.30
51661;DHT22;37741;49.748;8.490;2023-04-24T08:56:38;12.30;72.70
51661;DHT22;37741;49.748;8.490;2023-04-24T08:59:06;12.30;72.10
51661;DHT22;37741;49.748;8.490;2023-04-24T09:01:32;12.30;71.90
51661;DHT22;37741;49.748;8.490;2023-04-24T09:04:03;12.30;72.40
51661;DHT22;37741;49.748;8.490;2023-04-24T09:06:30;12.30;72.00
51661;DHT22;37741;49.748;8.490;2023-04-24T09:09:00;12.30;72.10
51661;DHT22;37741;49.748;8.490;2023-04-24T09:11:27;12.30;72.00
51661;DHT22;37741;49.748;8.490;2023-04-24T09:13:53;12.30;72.30
51661;DHT22;37741;49.748;8.490;2023-04-24T09:16:20;12.30;72.40
51661;DHT22;37741;49.748;8.490;2023-04-24T09:18:46;12.40;72.30
51661;DHT22;37741;49.748;8.490;2023-04-24T09:21:11;12.40;72.50
51661;DHT22;37741;49.748;8.490;2023-04-24T09:23:38;12.40;72.10
51661;DHT22;37741;49.748;8.490;2023-04-24T09:26:04;12.40;71.50
51661;DHT22;37741;49.748;8.490;2023-04-24T09:28:40;12.40;71.30
51661;DHT22;37741;49.748;8.490;2023-04-24T09:31:11;12.40;71.60
51661;DHT22;37741;49.748;8.490;2023-04-24T09:33:36;12.40;71.80
51661;DHT22;37741;49.748;8.490;2023-04-24T09:36:03;12.40;71.70
51661;DHT22;37741;49.748;8.490;2023-04-24T09:38:38;12.50;71.60
51661;DHT22;37741;49.748;8.490;2023-04-24T09:41:08;12.50;71.40
51661;DHT22;37741;49.748;8.490;2023-04-24T09:43:38;12.50;71.60
51661;DHT22;37741;49.748;8.490;2023-04-24T09:46:06;12.50;71.40
51661;DHT22;37741;49.748;8.490;2023-04-24T09:48:33;12.50;71.30
51661;DHT22;37741;49.748;8.490;2023-04-24T09:51:00;12.50;71.10
51661;DHT22;37741;49.748;8.490;2023-04-24T09:53:27;12.50;71.50
51661;DHT22;37741;49.748;8.490;2023-04-24T09:55:53;12.60;71.50
51661;DHT22;37741;49.748;8.490;2023-04-24T09:58:24;12.50;71.30
51661;DHT22;37741;49.748;8.490;2023-04-24T10:00:54;12.50;71.50
51661;DHT22;37741;49.748;8.490;2023-04-24T10:03:20;12.60;71.50
51661;DHT22;37741;49.748;8.490;2023-04-24T10:05:46;12.60;71.10
51661;DHT22;37741;49.748;8.490;2023-04-24T10:08:13;12.60;70.90
51661;DHT22;37741;49.748;8.490;2023-04-24T10:10:41;12.60;71.30
51661;DHT22;37741;49.748;8.490;2023-04-24T10:13:09;12.60;71.10
51661;DHT22;37741;49.748;8.490;2023-04-24T10:15:36;12.70;70.90
51661;DHT22;37741;49.748;8.490;2023-04-24T10:18:02;12.70;70.70
51661;DHT22;37741;49.748;8.490;2023-04-24T10:20:30;12.70;70.40
51661;DHT22;37741;49.748;8.490;2023-04-24T10:22:58;12.70;70.50
51661;DHT22;37741;49.748;8.490;2023-04-24T10:25:31;12.70;70.60
51661;DHT22;37741;49.748;8.490;2023-04-24T10:27:58;12.70;71.00
51661;DHT22;37741;49.748;8.490;2023-04-24T10:30:29;12.70;70.80
51661;DHT22;37741;49.748;8.490;2023-04-24T10:32:55;12.80;70.90
51661;DHT22;37741;49.748;8.490;2023-04-24T10:35:22;12.80;71.30
51661;DHT22;37741;49.748;8.490;2023-04-24T10:38:06;12.80;70.40
51661;DHT22;37741;49.748;8.490;2023-04-24T10:40:34;12.80;70.50
51661;DHT22;37741;49.748;8.490;2023-04-24T10:43:03;12.80;70.60
51661;DHT22;37741;49.748;8.490;2023-04-24T10:45:31;12.80;70.20
51661;DHT22;37741;49.748;8.490;2023-04-24T10:48:05;12.80;70.00
51661;DHT22;37741;49.748;8.490;2023-04-24T10:50:52;12.90;70.50
51661;DHT22;37741;49.748;8.490;2023-04-24T10:53:23;12.90;70.30
51661;DHT22;37741;49.748;8.490;2023-04-24T10:55:58;13.00;70.20
51661;DHT22;37741;49.748;8.490;2023-04-24T10:58:26;13.00;70.00
51661;DHT22;37741;49.748;8.490;2023-04-24T11:01:00;13.00;69.80
51661;DHT22;37741;49.748;8.490;2023-04-24T11:03:31;13.10;69.20
51661;DHT22;37741;49.748;8.490;2023-04-24T11:05:58;13.10;69.30
51661;DHT22;37741;49.748;8.490;2023-04-24T11:08:28;13.20;69.00
51661;DHT22;37741;49.748;8.490;2023-04-24T11:11:13;13.20;68.60
51661;DHT22;37741;49.748;8.490;2023-04-24T11:18:59;13.20;69.30
51661;DHT22;37741;49.748;8.490;2023-04-24T11:21:25;13.30;69.40
51661;DHT22;37741;49.748;8.490;2023-04-24T11:23:51;13.30;69.20
51661;DHT22;37741;49.748;8.490;2023-04-24T11:26:23;13.30;69.10
51661;DHT22;37741;49.748;8.490;2023-04-24T11:29:06;13.30;68.80
51661;DHT22;37741;49.748;8.490;2023-04-24T11:31:40;13.40;68.90
51661;DHT22;37741;49.748;8.490;2023-04-24T11:34:12;13.40;69.00
51661;DHT22;37741;49.748;8.490;2023-04-24T11:36:39;13.50;68.90
51661;DHT22;37741;49.748;8.490;2023-04-24T11:39:05;13.50;68.80
51661;DHT22;37741;49.748;8.490;2023-04-24T11:41:31;13.60;68.60
51661;DHT22;37741;49.748;8.490;2023-04-24T11:43:57;13.60;68.00
51661;DHT22;37741;49.748;8.490;2023-04-24T11:46:23;13.60;68.40
51661;DHT22;37741;49.748;8.490;2023-04-24T11:48:51;13.60;67.70
51661;DHT22;37741;49.748;8.490;2023-04-24T11:51:17;13.60;68.20
51661;DHT22;37741;49.748;8.490;2023-04-24T11:53:42;13.70;68.00
51661;DHT22;37741;49.748;8.490;2023-04-24T11:56:11;13.70;67.70
51661;DHT22;37741;49.748;8.490;2023-04-24T11:58:38;13.70;67.80
51661;DHT22;37741;49.748;8.490;2023-04-24T12:01:04;13.80;67.80
51661;DHT22;37741;49.748;8.490;2023-04-24T12:03:31;13.80;68.40
51661;DHT22;37741;49.748;8.490;2023-04-24T12:06:11;13.80;68.80
51661;DHT22;37741;49.748;8.490;2023-04-24T12:08:37;13.80;68.20
51661;DHT22;37741;49.748;8.490;2023-04-24T12:11:05;13.80;68.50
51661;DHT22;37741;49.748;8.490;2023-04-24T12:13:34;13.80;68.50
51661;DHT22;37741;49.748;8.490;2023-04-24T12:16:04;13.80;68.70
51661;DHT22;37741;49.748;8.490;2023-04-24T12:18:32;13.80;69.00
51661;DHT22;37741;49.748;8.490;2023-04-24T12:21:17;13.80;69.50
51661;DHT22;37741;49.748;8.490;2023-04-24T12:23:46;13.70;70.00
51661;DHT22;37741;49.748;8.490;2023-04-24T12:26:19;13.70;70.30
51661;DHT22;37741;49.748;8.490;2023-04-24T12:28:47;13.70;70.60
51661;DHT22;37741;49.748;8.490;2023-04-24T12:31:14;13.70;71.00
51661;DHT22;37741;49.748;8.490;2023-04-24T12:33:40;13.70;71.20
51661;DHT22;37741;49.748;8.490;2023-04-24T12:36:06;13.70;71.40
51661;DHT22;37741;49.748;8.490;2023-04-24T12:38:32;13.70;70.90
51661;DHT22;37741;49.748;8.490;2023-04-24T12:41:11;13.70;71.20
51661;DHT22;37741;49.748;8.490;2023-04-24T12:43:37;13.80;71.00
51661;DHT22;37741;49.748;8.490;2023-04-24T12:46:03;13.80;70.70
51661;DHT22;37741;49.748;8.490;2023-04-24T12:48:29;13.90;69.70
51661;DHT22;37741;49.748;8.490;2023-04-24T12:50:57;14.00;69.00
51661;DHT22;37741;49.748;8.490;2023-04-24T12:53:25;14.20;68.50
51661;DHT22;37741;49.748;8.490;2023-04-24T12:55:52;14.20;67.60
51661;DHT22;37741;49.748;8.490;2023-04-24T12:58:21;14.30;67.10
51661;DHT22;37741;49.748;8.490;2023-04-24T13:00:47;14.30;65.50
51661;DHT22;37741;49.748;8.490;2023-04-24T13:03:14;14.40;65.00
51661;DHT22;37741;49.748;8.490;2023-04-24T13:05:40;14.30;65.10
51661;DHT22;37741;49.748;8.490;2023-04-24T13:08:05;14.40;65.00
51661;DHT22;37741;49.748;8.490;2023-04-24T13:10:31;14.30;65.20
51661;DHT22;37741;49.748;8.490;2023-04-24T13:12:57;14.30;65.10
51661;DHT22;37741;49.748;8.490;2023-04-24T13:15:23;14.30;65.10
51661;DHT22;37741;49.748;8.490;2023-04-24T13:17:49;14.30;65.50
51661;DHT22;37741;49.748;8.490;2023-04-24T13:20:14;14.40;65.90
51661;DHT22;37741;49.748;8.490;2023-04-24T13:22:40;14.40;66.00
51661;DHT22;37741;49.748;8.490;2023-04-24T13:25:06;14.40;65.70
51661;DHT22;37741;49.748;8.490;2023-04-24T13:27:32;14.40;65.60
51661;DHT22;37741;49.748;8.490;2023-04-24T13:29:58;14.40;65.70
51661;DHT22;37741;49.748;8.490;2023-04-24T13:32:23;14.50;66.10
51661;DHT22;37741;49.748;8.490;2023-04-24T13:34:50;14.40;65.80
51661;DHT22;37741;49.748;8.490;2023-04-24T13:37:16;14.40;66.30
51661;DHT22;37741;49.748;8.490;2023-04-24T13:39:41;14.40;66.00
51661;DHT22;37741;49.748;8.490;2023-04-24T13:42:07;14.40;65.80
51661;DHT22;37741;49.748;8.490;2023-04-24T13:44:32;14.40;65.30
51661;DHT22;37741;49.748;8.490;2023-04-24T13:46:58;14.50;65.40
51661;DHT22;37741;49.748;8.490;2023-04-24T13:49:24;14.50;65.10
51661;DHT22;37741;49.748;8.490;2023-04-24T13:51:51;14.60;65.50
51661;DHT22;37741;49.748;8.490;2023-04-24T13:54:17;14.60;65.00
51661;DHT22;37741;49.748;8.490;2023-04-24T13:56:43;14.60;65.00
51661;DHT22;37741;49.748;8.490;2023-04-24T13:59:08;14.60;64.70
51661;DHT22;37741;49.748;8.490;2023-04-24T14:01:34;14.60;64.30
51661;DHT22;37741;49.748;8.490;2023-04-24T14:04:00;14.60;64.20
51661;DHT22;37741;49.748;8.490;2023-04-24T14:06:26;14.60;64.00
51661;DHT22;37741;49.748;8.490;2023-04-24T14:08:51;14.60;64.10
51661;DHT22;37741;49.748;8.490;2023-04-24T14:11:18;14.60;64.20
51661;DHT22;37741;49.748;8.490;2023-04-24T14:13:44;14.60;63.90
51661;DHT22;37741;49.748;8.490;2023-04-24T14:16:10;14.60;63.90
51661;DHT22;37741;49.748;8.490;2023-04-24T14:18:36;14.60;64.30
51661;DHT22;37741;49.748;8.490;2023-04-24T14:21:03;14.70;64.10
51661;DHT22;37741;49.748;8.490;2023-04-24T14:23:28;14.70;64.50
51661;DHT22;37741;49.748;8.490;2023-04-24T14:25:54;14.70;64.60
51661;DHT22;37741;49.748;8.490;2023-04-24T14:28:21;14.80;64.30
51661;DHT22;37741;49.748;8.490;2023-04-24T14:30:50;14.80;64.60
51661;DHT22;37741;49.748;8.490;2023-04-24T14:33:16;14.80;64.30
51661;DHT22;37741;49.748;8.490;2023-04-24T14:35:42;14.80;63.80
51661;DHT22;37741;49.748;8.490;2023-04-24T14:38:08;14.80;63.70
51661;DHT22;37741;49.748;8.490;2023-04-24T14:40:34;14.90;63.60
51661;DHT22;37741;49.748;8.490;2023-04-24T14:43:00;14.90;63.20
51661;DHT22;37741;49.748;8.490;2023-04-24T14:45:26;15.00;63.50
51661;DHT22;37741;49.748;8.490;2023-04-24T14:47:52;15.00;63.20
51661;DHT22;37741;49.748;8.490;2023-04-24T14:50:18;15.00;62.80
51661;DHT22;37741;49.748;8.490;2023-04-24T14:52:44;15.00;63.20
51661;DHT22;37741;49.748;8.490;2023-04-24T14:55:10;15.10;63.30
51661;DHT22;37741;49.748;8.490;2023-04-24T14:57:36;15.10;62.70
51661;DHT22;37741;49.748;8.490;2023-04-24T15:00:03;15.10;62.70
51661;DHT22;37741;49.748;8.490;2023-04-24T15:02:32;15.10;62.00
51661;DHT22;37741;49.748;8.490;2023-04-24T15:04:57;15.10;62.60
51661;DHT22;37741;49.748;8.490;2023-04-24T15:07:24;15.10;62.80
51661;DHT22;37741;49.748;8.490;2023-04-24T15:09:49;15.10;62.90
51661;DHT22;37741;49.748;8.490;2023-04-24T15:12:15;15.10;62.90
51661;DHT22;37741;49.748;8.490;2023-04-24T15:14:41;15.10;61.70
51661;DHT22;37741;49.748;8.490;2023-04-24T15:17:06;15.10;62.90
51661;DHT22;37741;49.748;8.490;2023-04-24T15:19:32;15.10;62.20
51661;DHT22;37741;49.748;8.490;2023-04-24T15:21:57;15.20;62.20
51661;DHT22;37741;49.748;8.490;2023-04-24T15:24:23;15.30;61.80
51661;DHT22;37741;49.748;8.490;2023-04-24T15:26:49;15.30;62.10
51661;DHT22;37741;49.748;8.490;2023-04-24T15:29:15;15.40;62.20
51661;DHT22;37741;49.748;8.490;2023-04-24T15:31:40;15.40;61.30